Time;durP1;ratioP1;P1;durP2;ratioP2;P2;SDS_P1;SDS_P2;PMS_P1;PMS_P2;Temp;Humidity;BMP_temperature;BMP_pressure;BME280_temperature;BME280_humidity;BME280_pressure;Samples;Min_cycle;Max_cycle;Signal;HPM_P1;HPM_P2
2023/04/17 00:01:51;;;;;;;;;;;;;;;11.76;86.98;99097.16;4991646;28;19985;-93
2023/04/17 00:04:16;;;;;;;;;;;;;;;11.78;86.45;99087.41;5006452;28;19922;-93
2023/04/17 00:06:43;;;;;;;;;;;;;;;11.72;86.38;99089.38;4991486;28;19924;-93
2023/04/17 00:09:09;;;;;;;;;;;;;;;11.72;86.04;99087.59;4991867;28;19921;-93
2023/04/17 00:11:36;;;;;;;;;;;;;;;11.61;85.77;99092.31;4990056;28;19913;-93
2023/04/17 00:14:02;;;;;;;;;;;;;;;11.46;85.82;99086.56;4974085;28;20276;-93
2023/04/17 00:16:29;;;;;;;;;;;;;;;11.41;85.82;99087.59;4991361;28;19910;-94
2023/04/17 00:18:55;;;;;;;;;;;;;;;11.41;86.61;99080.53;5005986;28;19948;-92
2023/04/17 00:21:22;;;;;;;;;;;;;;;11.42;86.66;99077.00;4990051;28;19963;-91
2023/04/17 00:23:47;;;;;;;;;;;;;;;11.50;85.94;99086.50;4991838;28;19921;-94
2023/04/17 00:26:12;;;;;;;;;;;;;;;11.56;85.46;99087.16;4990951;28;19914;-94
2023/04/17 00:28:38;;;;;;;;;;;;;;;11.54;84.67;99099.56;5006503;28;19984;-94
2023/04/17 00:31:04;;;;;;;;;;;;;;;11.46;85.17;99107.72;5006307;28;20084;-93
2023/04/17 00:33:30;;;;;;;;;;;;;;;11.55;84.79;99100.41;4974094;28;19920;-93
2023/04/17 00:35:56;;;;;;;;;;;;;;;11.31;86.02;99096.69;4973108;28;19914;-93
2023/04/17 00:38:21;;;;;;;;;;;;;;;11.38;85.71;99100.91;5006580;28;19964;-92
2023/04/17 00:40:47;;;;;;;;;;;;;;;11.40;84.65;99088.50;4990880;28;19917;-94
2023/04/17 00:43:13;;;;;;;;;;;;;;;11.31;84.70;99094.03;4989861;28;19914;-94
2023/04/17 00:45:40;;;;;;;;;;;;;;;11.41;84.03;99098.16;4973781;28;19914;-93
2023/04/17 00:48:07;;;;;;;;;;;;;;;11.46;83.34;99104.19;4973662;28;20382;-94
2023/04/17 00:50:32;;;;;;;;;;;;;;;11.50;83.29;99104.97;4973612;28;20390;-94
2023/04/17 00:52:58;;;;;;;;;;;;;;;11.46;82.73;99106.81;4990642;28;19957;-94
2023/04/17 00:55:25;;;;;;;;;;;;;;;11.40;81.74;99099.06;4973834;28;19953;-93
2023/04/17 00:57:51;;;;;;;;;;;;;;;11.40;80.83;99107.00;4973553;28;19917;-93
2023/04/17 01:00:17;;;;;;;;;;;;;;;11.26;81.10;99102.97;4990035;28;19920;-94
2023/04/17 01:02:44;;;;;;;;;;;;;;;11.19;81.13;99096.13;5007585;28;19920;-93
2023/04/17 01:05:09;;;;;;;;;;;;;;;11.14;81.37;99092.75;4994761;28;20403;-93
2023/04/17 01:07:40;;;;;;;;;;;;;;;11.21;80.88;99093.44;4994243;28;19968;-93
2023/04/17 01:10:06;;;;;;;;;;;;;;;11.02;80.35;99098.34;4993403;28;20043;-94
2023/04/17 01:12:31;;;;;;;;;;;;;;;10.95;80.66;99104.69;4993141;28;19917;-93
2023/04/17 01:14:57;;;;;;;;;;;;;;;10.97;80.94;99098.47;4994246;28;19921;-93
2023/04/17 01:17:25;;;;;;;;;;;;;;;10.94;80.69;99106.47;4994544;28;20047;-93
2023/04/17 01:19:51;;;;;;;;;;;;;;;10.92;80.91;99102.97;4976781;28;19913;-94
2023/04/17 01:22:16;;;;;;;;;;;;;;;11.03;80.08;99100.94;4994447;28;19909;-94
2023/04/17 01:24:42;;;;;;;;;;;;;;;10.87;80.24;99108.38;4976181;28;19918;-93
2023/04/17 01:27:07;;;;;;;;;;;;;;;10.95;80.07;99102.03;5009373;28;19914;-93
2023/04/17 01:29:33;;;;;;;;;;;;;;;10.93;80.21;99096.81;5008996;28;19945;-93
2023/04/17 01:32:00;;;;;;;;;;;;;;;10.95;79.25;99092.34;4993938;28;19914;-93
2023/04/17 01:34:26;;;;;;;;;;;;;;;10.98;79.17;99097.53;5008684;28;19972;-92
2023/04/17 01:36:51;;;;;;;;;;;;;;;10.99;79.12;99107.19;4976836;28;19918;-93
2023/04/17 01:39:16;;;;;;;;;;;;;;;10.96;78.58;99109.06;5008732;28;20471;-93
2023/04/17 01:41:42;;;;;;;;;;;;;;;10.70;79.15;99105.31;4993598;28;19945;-93
2023/04/17 01:44:07;;;;;;;;;;;;;;;10.68;79.66;99110.63;4993575;28;19953;-93
2023/04/17 01:46:33;;;;;;;;;;;;;;;10.54;79.31;99110.09;4992121;28;19914;-93
2023/04/17 01:48:58;;;;;;;;;;;;;;;10.48;80.48;99107.63;5008333;28;19917;-93
2023/04/17 01:51:24;;;;;;;;;;;;;;;10.55;79.95;99103.91;4993825;28;20369;-93
2023/04/17 01:53:49;;;;;;;;;;;;;;;10.67;79.45;99090.41;5008594;28;20420;-93
2023/04/17 01:56:16;;;;;;;;;;;;;;;10.75;78.86;99091.09;4993753;28;19914;-93
2023/04/17 01:58:42;;;;;;;;;;;;;;;10.61;79.67;99087.94;4975873;28;19920;-93
2023/04/17 02:01:07;;;;;;;;;;;;;;;10.45;80.11;99087.44;4993180;28;20454;-93
2023/04/17 02:03:34;;;;;;;;;;;;;;;10.44;80.69;99093.66;4992059;28;19920;-93
2023/04/17 02:05:59;;;;;;;;;;;;;;;10.54;80.17;99096.91;4993442;28;20004;-93
2023/04/17 02:08:26;;;;;;;;;;;;;;;10.25;81.44;99095.78;5008331;28;20007;-92
2023/04/17 02:10:52;;;;;;;;;;;;;;;10.27;82.01;99094.00;4992821;28;19921;-93
2023/04/17 02:13:17;;;;;;;;;;;;;;;10.39;82.34;99091.13;4992882;28;19913;-93
2023/04/17 02:15:43;;;;;;;;;;;;;;;10.54;81.26;99081.09;5008408;28;20402;-93
2023/04/17 02:18:08;;;;;;;;;;;;;;;10.52;81.07;99075.00;4992548;28;19925;-93
2023/04/17 02:20:34;;;;;;;;;;;;;;;10.48;81.24;99083.88;5008241;28;19918;-94
2023/04/17 02:23:00;;;;;;;;;;;;;;;10.51;80.83;99086.44;4993200;28;19918;-94
2023/04/17 02:25:26;;;;;;;;;;;;;;;10.50;80.87;99084.69;4975896;28;20401;-94
2023/04/17 02:27:52;;;;;;;;;;;;;;;10.63;80.03;99086.13;5007669;28;19918;-93
2023/04/17 02:30:18;;;;;;;;;;;;;;;10.62;79.19;99087.03;4975031;28;19917;-93
2023/04/17 02:32:44;;;;;;;;;;;;;;;10.59;79.49;99084.47;4992678;28;19991;-93
2023/04/17 02:35:10;;;;;;;;;;;;;;;10.55;79.88;99088.97;5007924;28;20371;-93
2023/04/17 02:37:35;;;;;;;;;;;;;;;10.60;79.36;99087.97;4974851;28;20371;-93
2023/04/17 02:40:01;;;;;;;;;;;;;;;10.33;79.72;99099.19;4975117;28;20295;-93
2023/04/17 02:42:27;;;;;;;;;;;;;;;10.14;79.80;99097.81;4991859;28;20386;-92
2023/04/17 02:44:53;;;;;;;;;;;;;;;10.09;79.89;99097.94;5007813;28;19936;-93
2023/04/17 02:47:18;;;;;;;;;;;;;;;10.00;80.47;99101.63;4991206;28;20534;-93
2023/04/17 02:49:44;;;;;;;;;;;;;;;10.14;80.78;99093.41;4992374;28;19914;-93
2023/04/17 02:52:09;;;;;;;;;;;;;;;10.14;80.56;99101.31;4992576;28;20375;-93
2023/04/17 02:54:35;;;;;;;;;;;;;;;10.17;80.89;99103.03;4991593;28;20068;-93
2023/04/17 02:57:01;;;;;;;;;;;;;;;10.10;80.47;99098.78;4992882;28;19914;-92
2023/04/17 02:59:27;;;;;;;;;;;;;;;10.29;80.04;99093.97;5008035;28;19917;-93
2023/04/17 03:01:52;;;;;;;;;;;;;;;10.21;80.14;99088.88;5006715;28;20424;-94
2023/04/17 03:04:20;;;;;;;;;;;;;;;10.20;80.51;99087.13;4991292;28;19918;-93
2023/04/17 03:06:46;;;;;;;;;;;;;;;10.24;79.95;99085.28;4990914;28;19913;-93
2023/04/17 03:09:13;;;;;;;;;;;;;;;10.31;79.92;99089.53;4991721;28;19980;-93
2023/04/17 03:11:39;;;;;;;;;;;;;;;10.34;79.53;99084.22;4974573;28;19913;-91
2023/04/17 03:14:04;;;;;;;;;;;;;;;10.58;79.22;99072.19;4992287;28;19920;-91
2023/04/17 03:16:30;;;;;;;;;;;;;;;10.56;78.74;99079.28;4991253;28;19913;-91
2023/04/17 03:18:55;;;;;;;;;;;;;;;10.47;78.22;99087.41;4991998;28;19921;-92
2023/04/17 03:21:20;;;;;;;;;;;;;;;10.52;78.20;99089.03;4991512;28;20469;-92
2023/04/17 03:23:46;;;;;;;;;;;;;;;10.46;77.90;99080.44;4991465;28;19980;-90
2023/04/17 03:26:11;;;;;;;;;;;;;;;10.48;77.77;99087.38;4990860;28;19996;-91
2023/04/17 03:28:36;;;;;;;;;;;;;;;10.64;78.07;99084.34;4989962;28;19914;-91
2023/04/17 03:31:02;;;;;;;;;;;;;;;10.52;78.03;99072.38;4990100;28;19914;-91
2023/04/17 03:33:27;;;;;;;;;;;;;;;10.59;78.01;99067.78;4991191;28;19913;-91
2023/04/17 03:35:53;;;;;;;;;;;;;;;10.64;77.61;99076.44;4991349;28;20427;-91
2023/04/17 03:38:19;;;;;;;;;;;;;;;10.51;78.29;99075.91;4991595;28;19964;-91
2023/04/17 03:40:44;;;;;;;;;;;;;;;10.47;78.90;99077.75;5006160;28;19921;-92
2023/04/17 03:43:10;;;;;;;;;;;;;;;10.28;79.65;99076.41;4990692;28;19913;-91
2023/04/17 03:45:35;;;;;;;;;;;;;;;10.41;79.92;99075.25;4991184;28;19917;-90
2023/04/17 03:48:01;;;;;;;;;;;;;;;10.50;80.28;99074.16;4991004;28;19913;-90
2023/04/17 03:50:27;;;;;;;;;;;;;;;10.48;80.84;99086.53;4990430;28;19972;-91
2023/04/17 03:52:53;;;;;;;;;;;;;;;10.51;81.31;99092.56;4989535;28;19917;-90
2023/04/17 03:55:18;;;;;;;;;;;;;;;10.50;81.35;99095.25;4990888;28;19992;-90
2023/04/17 03:57:44;;;;;;;;;;;;;;;10.52;81.59;99104.00;4990816;28;20395;-91
2023/04/17 04:00:09;;;;;;;;;;;;;;;10.34;81.21;99106.16;4990588;28;19914;-90
2023/04/17 04:02:35;;;;;;;;;;;;;;;9.92;82.80;99103.56;5005674;28;19918;-90
2023/04/17 04:05:01;;;;;;;;;;;;;;;10.01;83.06;99102.50;4991212;28;19910;-90
2023/04/17 04:07:27;;;;;;;;;;;;;;;10.08;82.90;99098.81;4990530;28;19957;-90
2023/04/17 04:09:52;;;;;;;;;;;;;;;10.14;82.75;99103.94;4990858;28;19914;-91
2023/04/17 04:12:17;;;;;;;;;;;;;;;10.28;82.62;99106.28;4988919;28;19914;-91
2023/04/17 04:14:43;;;;;;;;;;;;;;;10.29;81.98;99108.00;5005385;28;20379;-91
2023/04/17 04:17:08;;;;;;;;;;;;;;;10.47;81.74;99113.78;4990325;28;19926;-90
2023/04/17 04:19:33;;;;;;;;;;;;;;;10.38;81.91;99115.75;4990748;28;19925;-90
2023/04/17 04:21:59;;;;;;;;;;;;;;;10.53;81.52;99117.16;4991636;28;19993;-91
2023/04/17 04:24:24;;;;;;;;;;;;;;;10.55;81.39;99125.00;5005677;28;19918;-92
2023/04/17 04:26:50;;;;;;;;;;;;;;;10.63;81.36;99119.53;4989184;28;19913;-90
2023/04/17 04:29:15;;;;;;;;;;;;;;;10.80;81.32;99125.28;4990638;28;19916;-90
2023/04/17 04:31:41;;;;;;;;;;;;;;;10.88;81.15;99136.50;4972232;28;19968;-90
2023/04/17 04:34:07;;;;;;;;;;;;;;;10.90;80.52;99125.91;4990914;28;19914;-90
2023/04/17 04:36:35;;;;;;;;;;;;;;;10.82;81.60;99126.09;4992088;28;20366;-90
2023/04/17 04:39:06;;;;;;;;;;;;;;;10.98;81.70;99131.00;4994442;28;19918;-90
2023/04/17 04:41:32;;;;;;;;;;;;;;;11.16;81.19;99125.25;4994238;28;19921;-90
2023/04/17 04:43:58;;;;;;;;;;;;;;;11.11;80.56;99125.34;4994046;28;19917;-91
2023/04/17 04:46:23;;;;;;;;;;;;;;;11.18;81.01;99131.34;4994830;28;20379;-89
2023/04/17 04:48:49;;;;;;;;;;;;;;;11.17;80.84;99134.00;4975671;28;19921;-89
2023/04/17 04:51:14;;;;;;;;;;;;;;;11.23;81.52;99136.50;4994212;28;19913;-89
2023/04/17 04:53:40;;;;;;;;;;;;;;;11.40;81.26;99138.69;4994423;28;19956;-89
2023/04/17 04:56:05;;;;;;;;;;;;;;;11.52;81.13;99134.84;4994503;28;19917;-88
2023/04/17 04:58:31;;;;;;;;;;;;;;;11.46;80.57;99138.50;4992827;28;19920;-89
2023/04/17 05:00:56;;;;;;;;;;;;;;;11.59;80.62;99149.63;4994404;28;19940;-90
2023/04/17 05:03:22;;;;;;;;;;;;;;;11.78;80.24;99142.88;5008554;28;19968;-90
2023/04/17 05:05:49;;;;;;;;;;;;;;;11.85;80.05;99151.53;4994080;28;19913;-91
2023/04/17 05:08:14;;;;;;;;;;;;;;;11.92;78.75;99146.94;4994103;28;19957;-91
2023/04/17 05:10:40;;;;;;;;;;;;;;;11.87;78.07;99146.19;4993619;28;20343;-91
2023/04/17 05:13:05;;;;;;;;;;;;;;;11.90;78.20;99157.53;4994354;28;19937;-91
2023/04/17 05:15:31;;;;;;;;;;;;;;;11.83;77.96;99156.88;4993086;28;19928;-89
2023/04/17 05:17:57;;;;;;;;;;;;;;;11.96;78.90;99154.75;5008103;28;20388;-89
2023/04/17 05:20:24;;;;;;;;;;;;;;;12.09;78.71;99147.31;4993443;28;19920;-89
2023/04/17 05:22:50;;;;;;;;;;;;;;;12.20;78.76;99159.34;4993798;28;19918;-89
2023/04/17 05:25:16;;;;;;;;;;;;;;;12.27;78.97;99151.19;4993431;28;20374;-90
2023/04/17 05:27:42;;;;;;;;;;;;;;;12.24;79.32;99143.34;4997427;28;19913;-89
2023/04/17 05:30:07;;;;;;;;;;;;;;;12.40;79.33;99142.88;5004700;28;19914;-88
2023/04/17 05:32:34;;;;;;;;;;;;;;;12.39;80.09;99136.72;5001155;28;19914;-88
2023/04/17 05:34:59;;;;;;;;;;;;;;;12.44;80.44;99137.44;5003842;28;19914;-88
2023/04/17 05:37:25;;;;;;;;;;;;;;;12.77;79.11;99139.06;5002524;28;20080;-89
2023/04/17 05:39:51;;;;;;;;;;;;;;;12.92;76.57;99138.53;5001128;28;19926;-91
2023/04/17 05:42:16;;;;;;;;;;;;;;;12.96;75.71;99142.84;4992393;28;20024;-91
2023/04/17 05:44:42;;;;;;;;;;;;;;;13.04;75.00;99150.53;4993512;28;19918;-91
2023/04/17 05:47:07;;;;;;;;;;;;;;;13.21;74.33;99153.44;4991888;28;19953;-90
2023/04/17 05:49:32;;;;;;;;;;;;;;;13.23;73.71;99156.03;4991421;28;20362;-90
2023/04/17 05:51:58;;;;;;;;;;;;;;;13.12;74.98;99166.16;4993316;28;20715;-89
2023/04/17 05:54:23;;;;;;;;;;;;;;;13.30;74.73;99162.88;4993735;28;20379;-89
2023/04/17 05:56:49;;;;;;;;;;;;;;;13.17;75.96;99154.47;4993089;28;19913;-89
2023/04/17 05:59:14;;;;;;;;;;;;;;;13.40;75.30;99160.78;4992818;28;19913;-89
2023/04/17 06:01:40;;;;;;;;;;;;;;;13.57;74.94;99168.13;4993502;28;20362;-89
2023/04/17 06:04:06;;;;;;;;;;;;;;;13.63;73.79;99161.78;5007880;28;19982;-88
2023/04/17 06:06:32;;;;;;;;;;;;;;;13.95;72.19;99166.75;4992806;28;19920;-89
2023/04/17 06:08:57;;;;;;;;;;;;;;;13.90;73.31;99155.47;4992565;28;19922;-87
2023/04/17 06:11:23;;;;;;;;;;;;;;;14.02;74.61;99151.47;4992244;28;19921;-88
2023/04/17 06:13:48;;;;;;;;;;;;;;;14.23;72.33;99135.66;4991787;28;19914;-89
2023/04/17 06:16:13;;;;;;;;;;;;;;;14.36;72.44;99167.88;4990401;28;19920;-88
2023/04/17 06:18:40;;;;;;;;;;;;;;;14.42;74.59;99171.16;4992197;28;19976;-89
2023/04/17 06:21:06;;;;;;;;;;;;;;;14.56;73.42;99172.41;4991896;28;19917;-88
2023/04/17 06:23:31;;;;;;;;;;;;;;;14.63;71.37;99177.44;4992282;28;20041;-89
2023/04/17 06:25:57;;;;;;;;;;;;;;;14.92;69.10;99186.03;4991770;28;20012;-88
2023/04/17 06:28:22;;;;;;;;;;;;;;;15.27;66.31;99181.03;4991779;28;19914;-89
2023/04/17 06:30:48;;;;;;;;;;;;;;;15.58;65.43;99193.00;4991775;28;19936;-88
2023/04/17 06:33:13;;;;;;;;;;;;;;;15.32;65.68;99197.66;4991771;28;19968;-88
2023/04/17 06:35:39;;;;;;;;;;;;;;;15.39;65.56;99204.41;4991556;28;19918;-88
2023/04/17 06:38:05;;;;;;;;;;;;;;;15.26;66.89;99205.00;4990690;28;19913;-88
2023/04/17 06:40:30;;;;;;;;;;;;;;;15.15;66.85;99205.44;4991353;28;19913;-89
2023/04/17 06:42:56;;;;;;;;;;;;;;;14.88;69.29;99194.19;4991461;28;19914;-88
2023/04/17 06:45:21;;;;;;;;;;;;;;;14.70;69.03;99198.44;4991568;28;20272;-90
2023/04/17 06:47:46;;;;;;;;;;;;;;;14.83;68.93;99202.34;4991306;28;19914;-90
2023/04/17 06:50:12;;;;;;;;;;;;;;;15.09;68.91;99205.69;4991478;28;19925;-88
2023/04/17 06:52:37;;;;;;;;;;;;;;;14.92;69.12;99206.41;4991999;28;20368;-89
2023/04/17 06:55:03;;;;;;;;;;;;;;;14.83;68.63;99207.66;4991862;28;19948;-90
2023/04/17 06:57:28;;;;;;;;;;;;;;;14.91;70.09;99205.53;4990732;28;19971;-90
2023/04/17 06:59:54;;;;;;;;;;;;;;;15.06;67.44;99214.69;4990961;28;19988;-90
2023/04/17 07:02:19;;;;;;;;;;;;;;;15.14;68.07;99209.91;4990881;28;19914;-89
2023/04/17 07:04:44;;;;;;;;;;;;;;;15.06;65.79;99211.16;4991917;28;20008;-89
2023/04/17 07:07:10;;;;;;;;;;;;;;;14.97;67.53;99207.94;4991221;28;19914;-90
2023/04/17 07:09:35;;;;;;;;;;;;;;;15.00;66.95;99220.25;4991695;28;20069;-90
2023/04/17 07:12:02;;;;;;;;;;;;;;;14.97;66.23;99209.75;4990710;28;19971;-89
2023/04/17 07:14:28;;;;;;;;;;;;;;;14.72;67.01;99209.84;4991347;28;20406;-89
2023/04/17 07:16:53;;;;;;;;;;;;;;;14.80;66.69;99210.44;4991529;28;19918;-91
2023/04/17 07:19:18;;;;;;;;;;;;;;;14.93;66.13;99210.78;4991811;28;19913;-92
2023/04/17 07:21:44;;;;;;;;;;;;;;;14.69;67.91;99213.50;4990362;28;19997;-91
2023/04/17 07:24:09;;;;;;;;;;;;;;;14.62;67.34;99220.81;4990132;28;20013;-91
2023/04/17 07:26:35;;;;;;;;;;;;;;;14.70;68.12;99220.53;5006271;28;20252;-91
2023/04/17 07:29:01;;;;;;;;;;;;;;;14.55;69.59;99214.03;4990140;28;19918;-91
2023/04/17 07:31:27;;;;;;;;;;;;;;;14.45;70.48;99218.78;4990421;28;19964;-91
2023/04/17 07:33:52;;;;;;;;;;;;;;;14.45;71.84;99213.50;5006768;28;19955;-91
2023/04/17 07:36:18;;;;;;;;;;;;;;;14.28;71.76;99213.28;4973852;28;19961;-90
2023/04/17 07:38:43;;;;;;;;;;;;;;;14.15;74.90;99216.38;4990015;28;19937;-90
2023/04/17 07:41:10;;;;;;;;;;;;;;;14.11;77.60;99206.81;5006316;28;19913;-91
2023/04/17 07:43:35;;;;;;;;;;;;;;;13.90;79.35;99215.56;4990286;28;20005;-91
2023/04/17 07:46:01;;;;;;;;;;;;;;;13.99;79.90;99206.41;4989884;28;19918;-91
2023/04/17 07:48:26;;;;;;;;;;;;;;;14.16;79.83;99214.59;4973853;28;19913;-92
2023/04/17 07:50:52;;;;;;;;;;;;;;;13.92;80.73;99216.38;5006444;28;19913;-92
2023/04/17 07:53:17;;;;;;;;;;;;;;;13.92;81.86;99208.44;5006366;28;19921;-91
2023/04/17 07:55:43;;;;;;;;;;;;;;;13.84;82.63;99218.44;5006161;28;19914;-91
2023/04/17 07:58:10;;;;;;;;;;;;;;;13.89;83.05;99217.34;5006323;28;19936;-90
2023/04/17 08:00:36;;;;;;;;;;;;;;;14.01;81.75;99193.94;4973161;28;19920;-90
2023/04/17 08:03:01;;;;;;;;;;;;;;;14.09;80.59;99213.97;4989863;28;20004;-88
2023/04/17 08:05:27;;;;;;;;;;;;;;;14.21;79.76;99212.66;4990917;28;19997;-89
2023/04/17 08:07:52;;;;;;;;;;;;;;;14.54;78.14;99209.63;4990377;28;19913;-90
2023/04/17 08:10:18;;;;;;;;;;;;;;;14.70;77.07;99215.22;4989924;28;19920;-92
2023/04/17 08:12:43;;;;;;;;;;;;;;;14.77;76.27;99210.56;4993469;28;20548;-89
2023/04/17 08:15:09;;;;;;;;;;;;;;;14.86;75.31;99211.03;4994748;28;19913;-89
2023/04/17 08:17:34;;;;;;;;;;;;;;;14.95;74.36;99212.47;4984869;28;20013;-91
2023/04/17 08:20:10;;;;;;;;;;;;;;;15.04;73.91;99217.41;4975554;28;20364;-91
2023/04/17 08:22:40;;;;;;;;;;;;;;;14.96;73.99;99213.31;4973751;28;19914;-92
2023/04/17 08:25:08;;;;;;;;;;;;;;;14.94;75.06;99216.03;4974073;28;20399;-92
2023/04/17 08:27:37;;;;;;;;;;;;;;;14.96;75.25;99215.97;4975575;28;19920;-93
2023/04/17 08:30:03;;;;;;;;;;;;;;;14.38;81.50;99208.47;4975500;28;20028;-90
2023/04/17 08:32:28;;;;;;;;;;;;;;;13.95;85.08;99205.66;4975389;28;20435;-89
2023/04/17 08:34:56;;;;;;;;;;;;;;;13.88;86.04;99202.34;4975321;28;19925;-90
2023/04/17 08:37:21;;;;;;;;;;;;;;;13.85;86.23;99201.59;4975240;28;19925;-88
2023/04/17 08:39:51;;;;;;;;;;;;;;;14.05;86.64;99203.53;4974652;28;20477;-88
2023/04/17 08:42:16;;;;;;;;;;;;;;;13.95;86.99;99197.72;4974800;28;19918;-89
2023/04/17 08:44:42;;;;;;;;;;;;;;;14.25;86.80;99195.69;4974756;28;19949;-92
2023/04/17 08:47:22;;;;;;;;;;;;;;;14.54;84.94;99199.00;4957560;28;19918;-93
2023/04/17 08:49:49;;;;;;;;;;;;;;;14.59;85.82;99205.00;4974753;28;19957;-92
2023/04/17 08:52:17;;;;;;;;;;;;;;;14.60;84.15;99200.56;4989758;28;20728;-92
2023/04/17 08:54:43;;;;;;;;;;;;;;;14.68;82.81;99199.34;4958136;28;19918;-90
2023/04/17 08:57:08;;;;;;;;;;;;;;;14.67;83.36;99204.72;4974623;28;19921;-88
2023/04/17 08:59:34;;;;;;;;;;;;;;;14.70;82.50;99209.91;4974652;28;19929;-90
2023/04/17 09:02:09;;;;;;;;;;;;;;;14.74;81.28;99210.66;4974471;28;20320;-92
2023/04/17 09:04:41;;;;;;;;;;;;;;;14.62;81.78;99202.25;4972811;28;20248;-90
2023/04/17 09:07:07;;;;;;;;;;;;;;;14.44;82.74;99210.91;4956805;28;20249;-89
2023/04/17 09:09:51;;;;;;;;;;;;;;;14.67;82.02;99215.34;4956423;28;20008;-92
2023/04/17 09:12:18;;;;;;;;;;;;;;;14.91;80.66;99215.31;4973798;28;19914;-90
2023/04/17 09:14:43;;;;;;;;;;;;;;;14.98;81.65;99217.66;4973961;28;20281;-90
2023/04/17 09:17:09;;;;;;;;;;;;;;;15.09;80.63;99217.22;4979250;28;19998;-91
2023/04/17 09:19:34;;;;;;;;;;;;;;;15.15;79.88;99214.31;4992886;28;20291;-89
2023/04/17 09:22:18;;;;;;;;;;;;;;;15.55;79.07;99212.63;4992214;28;19926;-89
2023/04/17 09:24:44;;;;;;;;;;;;;;;15.72;77.92;99205.69;4992753;28;19925;-88
2023/04/17 09:27:21;;;;;;;;;;;;;;;15.91;76.84;99206.63;4993163;28;19913;-90
2023/04/17 09:30:01;;;;;;;;;;;;;;;16.13;75.86;99208.34;4975603;28;20008;-89
2023/04/17 09:32:27;;;;;;;;;;;;;;;16.40;75.04;99202.66;4993118;28;19920;-90
2023/04/17 09:34:53;;;;;;;;;;;;;;;16.41;74.16;99210.56;4993668;28;19921;-90
2023/04/17 09:37:19;;;;;;;;;;;;;;;16.37;73.18;99197.47;4992912;28;19918;-89
2023/04/17 09:39:56;;;;;;;;;;;;;;;16.55;73.74;99193.94;4992993;28;19917;-90
2023/04/17 09:42:21;;;;;;;;;;;;;;;16.67;73.36;99195.19;4991346;28;20288;-89
2023/04/17 09:44:47;;;;;;;;;;;;;;;16.82;72.02;99194.44;4992575;28;19921;-90
2023/04/17 09:47:13;;;;;;;;;;;;;;;17.09;72.27;99194.03;4992826;28;19914;-89
2023/04/17 09:49:41;;;;;;;;;;;;;;;17.07;71.63;99198.59;4990842;28;20399;-91
2023/04/17 09:52:07;;;;;;;;;;;;;;;17.13;72.04;99198.28;4992615;28;20011;-90
2023/04/17 09:54:36;;;;;;;;;;;;;;;17.00;71.12;99199.81;4992466;28;20412;-90
2023/04/17 09:57:09;;;;;;;;;;;;;;;17.05;72.13;99189.78;4990862;28;19914;-90
2023/04/17 09:59:37;;;;;;;;;;;;;;;16.95;73.15;99189.41;4992414;28;20281;-88
2023/04/17 10:02:06;;;;;;;;;;;;;;;16.80;72.17;99190.09;4991996;28;19914;-89
2023/04/17 10:04:32;;;;;;;;;;;;;;;17.04;71.72;99184.53;4992354;28;19913;-89
2023/04/17 10:06:59;;;;;;;;;;;;;;;17.04;72.32;99180.09;4992065;28;19948;-89
2023/04/17 10:09:26;;;;;;;;;;;;;;;17.07;71.43;99181.72;4992480;28;19918;-89
2023/04/17 10:11:53;;;;;;;;;;;;;;;17.09;72.09;99182.53;4992303;28;19921;-89
2023/04/17 10:14:30;;;;;;;;;;;;;;;17.09;72.52;99179.88;4992217;28;19963;-91
2023/04/17 10:16:55;;;;;;;;;;;;;;;17.26;72.92;99177.19;4991810;28;19949;-91
2023/04/17 10:19:30;;;;;;;;;;;;;;;17.36;73.72;99174.91;4992611;28;20332;-88
2023/04/17 10:22:26;;;;;;;;;;;;;;;17.21;74.21;99176.59;4990434;28;19914;-91
2023/04/17 10:25:12;;;;;;;;;;;;;;;17.29;74.98;99157.53;4978364;28;19976;-91
2023/04/17 10:27:40;;;;;;;;;;;;;;;17.60;76.07;99180.78;4991412;28;20319;-90
2023/04/17 10:30:06;;;;;;;;;;;;;;;17.71;76.00;99174.91;4990921;28;19937;-88
2023/04/17 10:32:32;;;;;;;;;;;;;;;17.88;77.78;99168.69;4990489;28;19913;-88
2023/04/17 10:34:59;;;;;;;;;;;;;;;17.85;73.58;99168.84;4986227;28;19969;-91
2023/04/17 10:37:43;;;;;;;;;;;;;;;17.57;74.59;99164.97;4990477;28;19953;-92
2023/04/17 10:40:10;;;;;;;;;;;;;;;17.65;75.75;99164.56;4990124;28;19979;-91
2023/04/17 10:42:35;;;;;;;;;;;;;;;17.73;76.67;99159.66;4991860;28;19913;-90
2023/04/17 10:45:04;;;;;;;;;;;;;;;17.87;76.60;99164.28;4991338;28;19913;-92
2023/04/17 10:47:31;;;;;;;;;;;;;;;17.95;76.34;99162.09;4992064;28;19913;-90
2023/04/17 10:49:58;;;;;;;;;;;;;;;17.66;78.03;99163.63;4991100;28;20380;-92
2023/04/17 10:52:43;;;;;;;;;;;;;;;17.51;78.40;99163.47;4992111;28;20037;-93
2023/04/17 10:55:21;;;;;;;;;;;;;;;17.63;78.06;99166.44;4991606;28;19922;-92
2023/04/17 10:58:14;;;;;;;;;;;;;;;17.38;80.48;99172.16;4992030;28;20351;-91
2023/04/17 11:00:49;;;;;;;;;;;;;;;17.38;79.80;99169.50;4972230;28;19917;-94
2023/04/17 11:03:15;;;;;;;;;;;;;;;17.24;79.52;99175.53;4974701;28;19961;-93
2023/04/17 11:05:47;;;;;;;;;;;;;;;16.43;81.93;99178.56;5007632;28;19913;-89
2023/04/17 11:08:12;;;;;;;;;;;;;;;15.69;81.16;99176.56;4992388;28;19913;-87
2023/04/17 11:10:38;;;;;;;;;;;;;;;15.11;82.46;99179.97;4992309;28;20352;-89
2023/04/17 11:13:04;;;;;;;;;;;;;;;14.85;79.63;99171.28;4992051;28;19960;-88
2023/04/17 11:15:30;;;;;;;;;;;;;;;15.04;80.20;99158.97;4991837;28;20004;-89
2023/04/17 11:17:56;;;;;;;;;;;;;;;15.37;80.48;99154.94;4992077;28;19918;-90
2023/04/17 11:20:24;;;;;;;;;;;;;;;15.66;80.91;99152.78;4991953;28;19953;-91
2023/04/17 11:22:50;;;;;;;;;;;;;;;15.92;79.60;99147.19;4992114;28;19932;-92
2023/04/17 11:25:19;;;;;;;;;;;;;;;16.29;79.58;99155.25;4992095;28;19915;-92
2023/04/17 11:27:45;;;;;;;;;;;;;;;16.68;79.42;99150.75;4992127;28;19914;-91
2023/04/17 11:30:12;;;;;;;;;;;;;;;16.95;82.24;99154.75;4991709;28;20358;-90
2023/04/17 11:32:37;;;;;;;;;;;;;;;17.17;81.48;99145.69;4991566;28;19918;-91
2023/04/17 11:35:03;;;;;;;;;;;;;;;17.39;77.30;99150.75;4991511;28;19939;-90
2023/04/17 11:37:28;;;;;;;;;;;;;;;17.63;75.27;99142.44;4991341;28;20052;-89
2023/04/17 11:40:00;;;;;;;;;;;;;;;17.95;75.19;99148.75;4991882;28;20414;-92
2023/04/17 11:42:26;;;;;;;;;;;;;;;18.11;77.19;99139.94;5007222;28;20311;-93
2023/04/17 11:44:51;;;;;;;;;;;;;;;18.19;71.47;99141.22;4992480;28;19925;-92
2023/04/17 11:47:18;;;;;;;;;;;;;;;18.51;72.02;99133.22;4990851;28;19972;-90
2023/04/17 11:49:45;;;;;;;;;;;;;;;18.85;70.98;99127.78;4991559;28;20438;-90
2023/04/17 11:52:11;;;;;;;;;;;;;;;18.93;70.01;99125.53;4990883;28;19918;-89
2023/04/17 11:54:37;;;;;;;;;;;;;;;18.76;69.35;99123.81;4991018;28;19913;-89
2023/04/17 11:57:06;;;;;;;;;;;;;;;18.81;68.92;99127.06;4990969;28;20363;-90
2023/04/17 11:59:36;;;;;;;;;;;;;;;18.96;68.88;99122.66;4990851;28;19917;-89
2023/04/17 12:02:02;;;;;;;;;;;;;;;18.86;70.23;99127.69;4990561;28;19972;-89
2023/04/17 12:04:28;;;;;;;;;;;;;;;18.97;67.99;99129.75;4990970;28;19914;-90
2023/04/17 12:06:54;;;;;;;;;;;;;;;18.98;65.89;99122.59;5005450;28;19971;-90
2023/04/17 12:09:23;;;;;;;;;;;;;;;18.82;67.16;99122.59;4991541;28;19949;-90
2023/04/17 12:11:49;;;;;;;;;;;;;;;18.59;67.71;99125.63;4990644;28;19963;-90
2023/04/17 12:14:14;;;;;;;;;;;;;;;18.45;71.72;99120.22;4972703;28;20350;-92
2023/04/17 12:16:39;;;;;;;;;;;;;;;17.57;76.93;99116.09;4989114;28;19917;-91
2023/04/17 12:19:06;;;;;;;;;;;;;;;16.77;80.90;99110.38;4971895;28;19918;-89
2023/04/17 12:21:31;;;;;;;;;;;;;;;16.68;81.76;99111.66;4971618;28;19918;-90
2023/04/17 12:23:57;;;;;;;;;;;;;;;16.27;81.32;99115.41;4971665;28;19914;-90
2023/04/17 12:26:24;;;;;;;;;;;;;;;16.42;82.87;99107.63;4971985;28;19925;-92
2023/04/17 12:28:49;;;;;;;;;;;;;;;16.21;83.91;99109.53;4971221;28;20478;-92
2023/04/17 12:31:15;;;;;;;;;;;;;;;16.24;84.62;99101.41;4971406;28;19914;-91
2023/04/17 12:33:40;;;;;;;;;;;;;;;16.29;82.92;99105.53;4971576;28;20341;-91
2023/04/17 12:36:06;;;;;;;;;;;;;;;16.18;81.50;99099.88;4953172;28;19910;-89
2023/04/17 12:38:31;;;;;;;;;;;;;;;16.18;81.75;99078.59;4970149;28;20344;-92
2023/04/17 12:40:57;;;;;;;;;;;;;;;16.31;81.60;99096.63;4971283;28;19914;-91
2023/04/17 12:43:22;;;;;;;;;;;;;;;16.45;82.13;99095.03;4971790;28;20008;-91
2023/04/17 12:45:47;;;;;;;;;;;;;;;16.57;81.60;99090.91;4971542;28;19957;-87